sensor_id;sensor_type;location;lat;lon;timestamp;pressure;altitude;pressure_sealevel;temperature;humidity
72038;BME280;59900;50.788;12.904;2023-05-20T00:00:10;98174.59;;;12.91;76.37
72038;BME280;59900;50.788;12.904;2023-05-20T00:02:36;98175.38;;;12.85;76.67
72038;BME280;59900;50.788;12.904;2023-05-20T00:05:01;98167.84;;;12.82;76.38
72038;BME280;59900;50.788;12.904;2023-05-20T00:07:26;98153.59;;;12.76;76.78
72038;BME280;59900;50.788;12.904;2023-05-20T00:09:52;98161.53;;;12.76;77.03
72038;BME280;59900;50.788;12.904;2023-05-20T00:12:17;98154.19;;;12.72;77.35
72038;BME280;59900;50.788;12.904;2023-05-20T00:14:42;98158.84;;;12.70;77.49
72038;BME280;59900;50.788;12.904;2023-05-20T00:17:08;98159.88;;;12.75;77.32
72038;BME280;59900;50.788;12.904;2023-05-20T00:19:33;98173.28;;;12.74;77.64
72038;BME280;59900;50.788;12.904;2023-05-20T00:21:58;98170.63;;;12.74;77.24
72038;BME280;59900;50.788;12.904;2023-05-20T00:24:24;98164.53;;;12.73;77.54
72038;BME280;59900;50.788;12.904;2023-05-20T00:26:49;98157.84;;;12.71;77.29
72038;BME280;59900;50.788;12.904;2023-05-20T00:29:15;98159.22;;;12.67;77.90
72038;BME280;59900;50.788;12.904;2023-05-20T00:31:40;98154.78;;;12.67;77.79
72038;BME280;59900;50.788;12.904;2023-05-20T00:34:06;98160.03;;;12.67;77.51
72038;BME280;59900;50.788;12.904;2023-05-20T00:36:31;98155.97;;;12.65;77.70
72038;BME280;59900;50.788;12.904;2023-05-20T00:38:56;98153.34;;;12.65;77.99
72038;BME280;59900;50.788;12.904;2023-05-20T00:41:21;98152.03;;;12.54;78.52
72038;BME280;59900;50.788;12.904;2023-05-20T00:43:47;98144.72;;;12.50;78.67
72038;BME280;59900;50.788;12.904;2023-05-20T00:46:12;98152.25;;;12.53;78.46
72038;BME280;59900;50.788;12.904;2023-05-20T00:48:42;98148.97;;;12.51;78.52
72038;BME280;59900;50.788;12.904;2023-05-20T00:51:09;98159.13;;;12.54;78.30
72038;BME280;59900;50.788;12.904;2023-05-20T00:53:35;98155.69;;;12.53;78.22
72038;BME280;59900;50.788;12.904;2023-05-20T00:56:02;98155.31;;;12.56;78.32
72038;BME280;59900;50.788;12.904;2023-05-20T00:58:27;98158.06;;;12.48;78.93
72038;BME280;59900;50.788;12.904;2023-05-20T01:00:53;98160.72;;;12.48;78.75
72038;BME280;59900;50.788;12.904;2023-05-20T01:03:19;98155.22;;;12.43;78.89
72038;BME280;59900;50.788;12.904;2023-05-20T01:05:44;98153.34;;;12.37;79.43
72038;BME280;59900;50.788;12.904;2023-05-20T01:08:09;98145.81;;;12.34;79.24
72038;BME280;59900;50.788;12.904;2023-05-20T01:10:36;98148.91;;;12.38;79.32
72038;BME280;59900;50.788;12.904;2023-05-20T01:13:04;98153.97;;;12.39;79.25
72038;BME280;59900;50.788;12.904;2023-05-20T01:15:32;98140.00;;;12.39;79.27
72038;BME280;59900;50.788;12.904;2023-05-20T01:18:00;98138.13;;;12.39;79.46
72038;BME280;59900;50.788;12.904;2023-05-20T01:20:27;98139.56;;;12.35;79.54
72038;BME280;59900;50.788;12.904;2023-05-20T01:22:55;98136.09;;;12.34;79.64
72038;BME280;59900;50.788;12.904;2023-05-20T01:25:21;98140.56;;;12.34;79.56
72038;BME280;59900;50.788;12.904;2023-05-20T01:27:47;98149.88;;;12.36;79.50
72038;BME280;59900;50.788;12.904;2023-05-20T01:30:13;98144.19;;;12.33;79.83
72038;BME280;59900;50.788;12.904;2023-05-20T01:32:42;98143.72;;;12.23;79.77
72038;BME280;59900;50.788;12.904;2023-05-20T01:35:09;98144.72;;;12.22;79.97
72038;BME280;59900;50.788;12.904;2023-05-20T01:37:39;98143.66;;;12.16;80.34
72038;BME280;59900;50.788;12.904;2023-05-20T01:40:07;98148.50;;;12.13;80.54
72038;BME280;59900;50.788;12.904;2023-05-20T01:42:32;98136.91;;;12.07;80.52
72038;BME280;59900;50.788;12.904;2023-05-20T01:44:58;98138.53;;;12.08;80.69
72038;BME280;59900;50.788;12.904;2023-05-20T01:47:24;98143.56;;;12.03;80.51
72038;BME280;59900;50.788;12.904;2023-05-20T01:49:49;98141.69;;;11.97;81.29
72038;BME280;59900;50.788;12.904;2023-05-20T01:52:17;98129.91;;;11.93;81.31
72038;BME280;59900;50.788;12.904;2023-05-20T01:54:42;98131.25;;;11.89;81.46
72038;BME280;59900;50.788;12.904;2023-05-20T01:57:07;98131.41;;;11.81;81.81
72038;BME280;59900;50.788;12.904;2023-05-20T01:59:32;98131.28;;;11.68;81.94
72038;BME280;59900;50.788;12.904;2023-05-20T02:01:57;98131.44;;;11.66;82.78
72038;BME280;59900;50.788;12.904;2023-05-20T02:04:23;98129.00;;;11.65;82.67
72038;BME280;59900;50.788;12.904;2023-05-20T02:06:48;98129.38;;;11.62;82.47
72038;BME280;59900;50.788;12.904;2023-05-20T02:09:13;98127.13;;;11.59;82.73
72038;BME280;59900;50.788;12.904;2023-05-20T02:11:39;98126.31;;;11.58;82.74
72038;BME280;59900;50.788;12.904;2023-05-20T02:14:04;98115.94;;;11.57;82.92
72038;BME280;59900;50.788;12.904;2023-05-20T02:16:29;98112.91;;;11.53;83.33
72038;BME280;59900;50.788;12.904;2023-05-20T02:18:55;98111.63;;;11.49;83.29
72038;BME280;59900;50.788;12.904;2023-05-20T02:21:22;98115.47;;;11.47;83.86
72038;BME280;59900;50.788;12.904;2023-05-20T02:23:47;98112.00;;;11.46;83.79
72038;BME280;59900;50.788;12.904;2023-05-20T02:26:13;98108.69;;;11.38;84.02
72038;BME280;59900;50.788;12.904;2023-05-20T02:28:38;98103.19;;;11.33;84.01
72038;BME280;59900;50.788;12.904;2023-05-20T02:31:07;98108.00;;;11.29;84.16
72038;BME280;59900;50.788;12.904;2023-05-20T02:33:32;98111.34;;;11.23;84.78
72038;BME280;59900;50.788;12.904;2023-05-20T02:35:58;98117.63;;;11.22;84.91
72038;BME280;59900;50.788;12.904;2023-05-20T02:38:23;98117.97;;;11.19;84.88
72038;BME280;59900;50.788;12.904;2023-05-20T02:40:48;98116.78;;;11.21;84.67
72038;BME280;59900;50.788;12.904;2023-05-20T02:43:13;98121.25;;;11.21;84.82
72038;BME280;59900;50.788;12.904;2023-05-20T02:45:39;98114.97;;;11.22;84.76
72038;BME280;59900;50.788;12.904;2023-05-20T02:48:04;98115.81;;;11.22;84.81
72038;BME280;59900;50.788;12.904;2023-05-20T02:50:30;98109.91;;;11.20;85.13
72038;BME280;59900;50.788;12.904;2023-05-20T02:52:55;98117.34;;;11.17;84.72
72038;BME280;59900;50.788;12.904;2023-05-20T02:55:21;98123.34;;;11.11;85.17
72038;BME280;59900;50.788;12.904;2023-05-20T02:57:47;98118.09;;;11.11;85.74
72038;BME280;59900;50.788;12.904;2023-05-20T03:00:13;98120.28;;;11.07;85.72
72038;BME280;59900;50.788;12.904;2023-05-20T03:02:38;98118.28;;;11.09;85.50
72038;BME280;59900;50.788;12.904;2023-05-20T03:05:04;98109.38;;;11.10;85.47
72038;BME280;59900;50.788;12.904;2023-05-20T03:07:29;98103.75;;;11.13;85.29
72038;BME280;59900;50.788;12.904;2023-05-20T03:09:55;98102.31;;;11.11;85.35
72038;BME280;59900;50.788;12.904;2023-05-20T03:12:23;98099.56;;;10.98;85.93
72038;BME280;59900;50.788;12.904;2023-05-20T03:14:50;98098.66;;;10.91;86.68
72038;BME280;59900;50.788;12.904;2023-05-20T03:17:19;98094.13;;;10.85;86.96
72038;BME280;59900;50.788;12.904;2023-05-20T03:19:44;98092.94;;;10.87;86.92
72038;BME280;59900;50.788;12.904;2023-05-20T03:22:10;98090.50;;;10.86;87.21
72038;BME280;59900;50.788;12.904;2023-05-20T03:24:35;98096.19;;;10.89;86.96
72038;BME280;59900;50.788;12.904;2023-05-20T03:27:00;98096.84;;;10.91;87.25
72038;BME280;59900;50.788;12.904;2023-05-20T03:29:26;98106.97;;;10.94;86.97
72038;BME280;59900;50.788;12.904;2023-05-20T03:31:51;98101.91;;;10.93;87.20
72038;BME280;59900;50.788;12.904;2023-05-20T03:34:16;98110.06;;;10.98;86.90
72038;BME280;59900;50.788;12.904;2023-05-20T03:36:41;98100.44;;;11.05;86.68
72038;BME280;59900;50.788;12.904;2023-05-20T03:39:07;98119.28;;;11.08;86.47
72038;BME280;59900;50.788;12.904;2023-05-20T03:41:32;98113.94;;;11.02;86.39
72038;BME280;59900;50.788;12.904;2023-05-20T03:43:57;98113.78;;;11.03;86.24
72038;BME280;59900;50.788;12.904;2023-05-20T03:46:23;98115.59;;;11.03;86.40
72038;BME280;59900;50.788;12.904;2023-05-20T03:48:48;98117.19;;;11.04;86.43
72038;BME280;59900;50.788;12.904;2023-05-20T03:51:13;98124.09;;;11.05;86.33
72038;BME280;59900;50.788;12.904;2023-05-20T03:53:38;98121.28;;;11.06;86.22
72038;BME280;59900;50.788;12.904;2023-05-20T03:56:04;98127.34;;;11.07;86.41
72038;BME280;59900;50.788;12.904;2023-05-20T03:58:29;98122.91;;;11.07;86.57
72038;BME280;59900;50.788;12.904;2023-05-20T04:00:55;98121.66;;;11.03;86.86
72038;BME280;59900;50.788;12.904;2023-05-20T04:03:20;98109.75;;;11.07;86.73
72038;BME280;59900;50.788;12.904;2023-05-20T04:05:47;98119.47;;;11.07;86.73
72038;BME280;59900;50.788;12.904;2023-05-20T04:08:12;98128.97;;;11.08;86.87
72038;BME280;59900;50.788;12.904;2023-05-20T04:10:40;98131.25;;;11.11;86.61
72038;BME280;59900;50.788;12.904;2023-05-20T04:13:06;98125.06;;;11.18;86.59
72038;BME280;59900;50.788;12.904;2023-05-20T04:15:34;98124.50;;;11.23;86.13
72038;BME280;59900;50.788;12.904;2023-05-20T04:17:59;98135.94;;;11.30;85.84
72038;BME280;59900;50.788;12.904;2023-05-20T04:20:25;98137.31;;;11.26;85.77
72038;BME280;59900;50.788;12.904;2023-05-20T04:22:50;98125.94;;;11.25;86.15
72038;BME280;59900;50.788;12.904;2023-05-20T04:25:16;98131.59;;;11.22;85.67
72038;BME280;59900;50.788;12.904;2023-05-20T04:27:41;98154.00;;;11.18;85.93
72038;BME280;59900;50.788;12.904;2023-05-20T04:30:07;98145.47;;;11.16;86.31
72038;BME280;59900;50.788;12.904;2023-05-20T04:32:34;98146.09;;;11.18;86.52
72038;BME280;59900;50.788;12.904;2023-05-20T04:35:00;98135.41;;;11.20;86.11
72038;BME280;59900;50.788;12.904;2023-05-20T04:37:26;98139.84;;;11.19;86.63
72038;BME280;59900;50.788;12.904;2023-05-20T04:39:52;98135.84;;;11.23;86.41
72038;BME280;59900;50.788;12.904;2023-05-20T04:42:17;98133.69;;;11.27;86.27
72038;BME280;59900;50.788;12.904;2023-05-20T04:44:43;98130.22;;;11.27;86.10
72038;BME280;59900;50.788;12.904;2023-05-20T04:47:10;98126.19;;;11.31;86.29
72038;BME280;59900;50.788;12.904;2023-05-20T04:49:36;98122.22;;;11.35;86.40
72038;BME280;59900;50.788;12.904;2023-05-20T04:52:02;98126.72;;;11.41;85.91
72038;BME280;59900;50.788;12.904;2023-05-20T04:54:27;98124.53;;;11.44;85.57
72038;BME280;59900;50.788;12.904;2023-05-20T04:56:52;98128.16;;;11.43;85.55
72038;BME280;59900;50.788;12.904;2023-05-20T04:59:18;98122.34;;;11.48;85.56
72038;BME280;59900;50.788;12.904;2023-05-20T05:01:43;98121.16;;;11.50;85.53
72038;BME280;59900;50.788;12.904;2023-05-20T05:04:08;98124.50;;;11.59;85.20
72038;BME280;59900;50.788;12.904;2023-05-20T05:06:33;98133.25;;;11.66;84.98
72038;BME280;59900;50.788;12.904;2023-05-20T05:08:59;98128.28;;;11.71;84.33
72038;BME280;59900;50.788;12.904;2023-05-20T05:11:24;98128.31;;;11.77;84.31
72038;BME280;59900;50.788;12.904;2023-05-20T05:13:50;98110.72;;;11.78;83.92
72038;BME280;59900;50.788;12.904;2023-05-20T05:16:15;98115.97;;;11.78;84.23
72038;BME280;59900;50.788;12.904;2023-05-20T05:18:40;98120.31;;;11.86;83.73
72038;BME280;59900;50.788;12.904;2023-05-20T05:21:06;98117.09;;;11.90;83.62
72038;BME280;59900;50.788;12.904;2023-05-20T05:23:31;98117.59;;;12.00;83.45
72038;BME280;59900;50.788;12.904;2023-05-20T05:25:57;98115.81;;;12.07;82.94
72038;BME280;59900;50.788;12.904;2023-05-20T05:28:22;98113.69;;;12.17;82.97
72038;BME280;59900;50.788;12.904;2023-05-20T05:30:48;98114.13;;;12.27;82.75
72038;BME280;59900;50.788;12.904;2023-05-20T05:33:14;98114.63;;;12.38;81.76
72038;BME280;59900;50.788;12.904;2023-05-20T05:35:43;98111.44;;;12.49;82.05
72038;BME280;59900;50.788;12.904;2023-05-20T05:38:08;98115.13;;;12.54;81.40
72038;BME280;59900;50.788;12.904;2023-05-20T05:40:34;98106.44;;;12.60;81.58
72038;BME280;59900;50.788;12.904;2023-05-20T05:43:00;98111.28;;;12.57;81.61
72038;BME280;59900;50.788;12.904;2023-05-20T05:45:25;98107.69;;;12.64;81.17
72038;BME280;59900;50.788;12.904;2023-05-20T05:47:50;98110.38;;;12.71;81.26
72038;BME280;59900;50.788;12.904;2023-05-20T05:50:16;98110.19;;;12.79;81.30
72038;BME280;59900;50.788;12.904;2023-05-20T05:52:41;98109.19;;;12.80;81.21
72038;BME280;59900;50.788;12.904;2023-05-20T05:55:08;98104.75;;;12.87;80.79
72038;BME280;59900;50.788;12.904;2023-05-20T05:57:33;98102.94;;;12.87;81.13
72038;BME280;59900;50.788;12.904;2023-05-20T05:59:59;98105.38;;;12.89;80.96
72038;BME280;59900;50.788;12.904;2023-05-20T06:02:25;98104.75;;;12.87;81.24
72038;BME280;59900;50.788;12.904;2023-05-20T06:04:50;98105.56;;;12.87;80.84
72038;BME280;59900;50.788;12.904;2023-05-20T06:07:15;98107.59;;;12.92;80.67
72038;BME280;59900;50.788;12.904;2023-05-20T06:09:40;98110.25;;;12.92;80.93
72038;BME280;59900;50.788;12.904;2023-05-20T06:12:06;98097.47;;;12.96;80.73
72038;BME280;59900;50.788;12.904;2023-05-20T06:14:31;98097.50;;;13.02;80.86
72038;BME280;59900;50.788;12.904;2023-05-20T06:16:57;98097.31;;;12.97;80.58
72038;BME280;59900;50.788;12.904;2023-05-20T06:19:22;98107.06;;;13.03;80.73
72038;BME280;59900;50.788;12.904;2023-05-20T06:21:47;98098.78;;;13.13;80.51
72038;BME280;59900;50.788;12.904;2023-05-20T06:24:12;98098.22;;;13.17;80.68
72038;BME280;59900;50.788;12.904;2023-05-20T06:26:38;98091.28;;;13.16;80.36
72038;BME280;59900;50.788;12.904;2023-05-20T06:29:03;98089.91;;;13.20;80.65
72038;BME280;59900;50.788;12.904;2023-05-20T06:31:28;98098.41;;;13.16;80.59
72038;BME280;59900;50.788;12.904;2023-05-20T06:33:54;98093.75;;;13.18;80.79
72038;BME280;59900;50.788;12.904;2023-05-20T06:36:19;98091.13;;;13.18;80.19
72038;BME280;59900;50.788;12.904;2023-05-20T06:38:45;98088.25;;;13.19;80.30
72038;BME280;59900;50.788;12.904;2023-05-20T06:41:10;98090.72;;;13.27;80.27
72038;BME280;59900;50.788;12.904;2023-05-20T06:43:35;98089.34;;;13.38;80.21
72038;BME280;59900;50.788;12.904;2023-05-20T06:46:01;98088.94;;;13.41;79.73
72038;BME280;59900;50.788;12.904;2023-05-20T06:48:26;98088.75;;;13.56;79.34
72038;BME280;59900;50.788;12.904;2023-05-20T06:50:51;98084.09;;;13.71;79.13
72038;BME280;59900;50.788;12.904;2023-05-20T06:53:16;98091.63;;;13.80;78.31
72038;BME280;59900;50.788;12.904;2023-05-20T06:55:42;98089.81;;;13.94;77.89
72038;BME280;59900;50.788;12.904;2023-05-20T06:58:07;98086.94;;;14.02;77.25
72038;BME280;59900;50.788;12.904;2023-05-20T07:00:32;98075.38;;;14.03;76.73
72038;BME280;59900;50.788;12.904;2023-05-20T07:02:57;98083.50;;;14.08;77.29
72038;BME280;59900;50.788;12.904;2023-05-20T07:05:23;98071.28;;;14.20;76.45
72038;BME280;59900;50.788;12.904;2023-05-20T07:07:48;98060.69;;;14.33;75.73
72038;BME280;59900;50.788;12.904;2023-05-20T07:10:13;98075.34;;;14.36;75.41
72038;BME280;59900;50.788;12.904;2023-05-20T07:12:39;98074.75;;;14.40;75.24
72038;BME280;59900;50.788;12.904;2023-05-20T07:15:04;98070.63;;;14.51;75.04
72038;BME280;59900;50.788;12.904;2023-05-20T07:17:30;98066.53;;;14.62;74.68
72038;BME280;59900;50.788;12.904;2023-05-20T07:19:55;98067.72;;;14.72;74.67
72038;BME280;59900;50.788;12.904;2023-05-20T07:22:20;98065.88;;;14.79;74.37
72038;BME280;59900;50.788;12.904;2023-05-20T07:24:46;98065.03;;;14.85;73.91
72038;BME280;59900;50.788;12.904;2023-05-20T07:27:11;98062.00;;;14.82;73.36
72038;BME280;59900;50.788;12.904;2023-05-20T07:29:36;98061.34;;;14.86;73.94
72038;BME280;59900;50.788;12.904;2023-05-20T07:32:03;98055.47;;;14.84;73.78
72038;BME280;59900;50.788;12.904;2023-05-20T07:34:29;98048.75;;;14.82;73.73
72038;BME280;59900;50.788;12.904;2023-05-20T07:36:54;98049.34;;;14.84;74.04
72038;BME280;59900;50.788;12.904;2023-05-20T07:39:21;98045.47;;;14.86;73.94
72038;BME280;59900;50.788;12.904;2023-05-20T07:41:46;98048.28;;;14.91;73.59
72038;BME280;59900;50.788;12.904;2023-05-20T07:44:11;98040.97;;;14.93;74.19
72038;BME280;59900;50.788;12.904;2023-05-20T07:46:37;98037.84;;;15.03;73.80
72038;BME280;59900;50.788;12.904;2023-05-20T07:49:03;98039.91;;;15.01;73.64
72038;BME280;59900;50.788;12.904;2023-05-20T07:51:28;98040.91;;;15.06;73.61
72038;BME280;59900;50.788;12.904;2023-05-20T07:53:53;98038.06;;;15.08;73.88
72038;BME280;59900;50.788;12.904;2023-05-20T07:56:18;98035.97;;;15.17;73.40
72038;BME280;59900;50.788;12.904;2023-05-20T07:58:51;98035.31;;;15.21;73.48
72038;BME280;59900;50.788;12.904;2023-05-20T08:01:17;98037.13;;;15.27;73.33
72038;BME280;59900;50.788;12.904;2023-05-20T08:03:43;98020.38;;;15.33;73.30
72038;BME280;59900;50.788;12.904;2023-05-20T08:06:08;98023.59;;;15.35;73.47
72038;BME280;59900;50.788;12.904;2023-05-20T08:08:33;98029.28;;;15.39;72.58
72038;BME280;59900;50.788;12.904;2023-05-20T08:11:00;98028.06;;;15.41;72.95
72038;BME280;59900;50.788;12.904;2023-05-20T08:13:26;98027.25;;;15.41;72.45
72038;BME280;59900;50.788;12.904;2023-05-20T08:15:52;98019.75;;;15.38;71.94
72038;BME280;59900;50.788;12.904;2023-05-20T08:18:18;98020.75;;;15.37;72.13
72038;BME280;59900;50.788;12.904;2023-05-20T08:20:43;98015.47;;;15.37;71.87
72038;BME280;59900;50.788;12.904;2023-05-20T08:23:09;98010.38;;;15.35;71.83
72038;BME280;59900;50.788;12.904;2023-05-20T08:25:34;98007.09;;;15.40;72.13
72038;BME280;59900;50.788;12.904;2023-05-20T08:28:03;98007.91;;;15.40;72.22
72038;BME280;59900;50.788;12.904;2023-05-20T08:30:30;98000.56;;;15.42;72.03
72038;BME280;59900;50.788;12.904;2023-05-20T08:32:56;97997.91;;;15.42;72.72
72038;BME280;59900;50.788;12.904;2023-05-20T08:35:22;97994.66;;;15.47;72.24
72038;BME280;59900;50.788;12.904;2023-05-20T08:37:48;97986.88;;;15.52;71.99
72038;BME280;59900;50.788;12.904;2023-05-20T08:40:13;98000.13;;;15.52;71.46
72038;BME280;59900;50.788;12.904;2023-05-20T08:42:42;98002.38;;;15.48;71.52
72038;BME280;59900;50.788;12.904;2023-05-20T08:45:11;97999.72;;;15.48;72.04
72038;BME280;59900;50.788;12.904;2023-05-20T08:47:40;97999.28;;;15.51;71.80
72038;BME280;59900;50.788;12.904;2023-05-20T08:50:08;97990.69;;;15.56;71.51
72038;BME280;59900;50.788;12.904;2023-05-20T08:52:34;97998.38;;;15.64;71.49
72038;BME280;59900;50.788;12.904;2023-05-20T08:55:01;97996.97;;;15.61;71.32
72038;BME280;59900;50.788;12.904;2023-05-20T08:57:27;97989.78;;;15.68;71.93
72038;BME280;59900;50.788;12.904;2023-05-20T08:59:52;97994.22;;;15.75;71.92
72038;BME280;59900;50.788;12.904;2023-05-20T09:02:17;97986.69;;;15.72;71.12
72038;BME280;59900;50.788;12.904;2023-05-20T09:04:43;97990.31;;;15.77;71.74
72038;BME280;59900;50.788;12.904;2023-05-20T09:07:08;97992.66;;;15.85;71.53
72038;BME280;59900;50.788;12.904;2023-05-20T09:09:34;97985.72;;;15.91;70.90
72038;BME280;59900;50.788;12.904;2023-05-20T09:12:00;97983.41;;;15.94;70.66
72038;BME280;59900;50.788;12.904;2023-05-20T09:14:27;97978.06;;;16.01;70.68
72038;BME280;59900;50.788;12.904;2023-05-20T09:16:52;97977.19;;;16.07;70.74
72038;BME280;59900;50.788;12.904;2023-05-20T09:19:21;97981.03;;;16.11;70.25
72038;BME280;59900;50.788;12.904;2023-05-20T09:21:46;97980.22;;;16.10;70.52
72038;BME280;59900;50.788;12.904;2023-05-20T09:24:11;97968.28;;;16.19;70.14
72038;BME280;59900;50.788;12.904;2023-05-20T09:26:37;97971.44;;;16.28;69.90
72038;BME280;59900;50.788;12.904;2023-05-20T09:29:02;97971.16;;;16.36;70.37
72038;BME280;59900;50.788;12.904;2023-05-20T09:31:29;97960.97;;;16.51;69.82
72038;BME280;59900;50.788;12.904;2023-05-20T09:33:55;97954.72;;;16.64;69.82
72038;BME280;59900;50.788;12.904;2023-05-20T09:36:22;97953.97;;;16.75;69.62
72038;BME280;59900;50.788;12.904;2023-05-20T09:38:51;97950.97;;;16.83;68.66
72038;BME280;59900;50.788;12.904;2023-05-20T09:41:17;97946.41;;;16.90;68.83
72038;BME280;59900;50.788;12.904;2023-05-20T09:43:46;97939.59;;;16.94;68.09
72038;BME280;59900;50.788;12.904;2023-05-20T09:46:12;97934.63;;;16.98;68.74
72038;BME280;59900;50.788;12.904;2023-05-20T09:48:38;97941.50;;;17.05;68.97
72038;BME280;59900;50.788;12.904;2023-05-20T09:51:04;97935.03;;;17.13;69.27
72038;BME280;59900;50.788;12.904;2023-05-20T09:53:30;97929.00;;;17.06;68.98
72038;BME280;59900;50.788;12.904;2023-05-20T09:55:56;97931.09;;;17.04;68.89
72038;BME280;59900;50.788;12.904;2023-05-20T09:58:22;97932.94;;;17.03;69.41
72038;BME280;59900;50.788;12.904;2023-05-20T10:00:49;97923.13;;;17.04;69.37
72038;BME280;59900;50.788;12.904;2023-05-20T10:03:15;97925.88;;;17.09;68.97
72038;BME280;59900;50.788;12.904;2023-05-20T10:05:47;97921.50;;;17.14;68.95
72038;BME280;59900;50.788;12.904;2023-05-20T10:08:49;97905.72;;;17.19;69.19
72038;BME280;59900;50.788;12.904;2023-05-20T10:11:28;97898.22;;;17.28;69.43
72038;BME280;59900;50.788;12.904;2023-05-20T10:17:13;97898.13;;;17.34;69.18
72038;BME280;59900;50.788;12.904;2023-05-20T10:19:41;97901.25;;;17.43;69.33
72038;BME280;59900;50.788;12.904;2023-05-20T10:22:08;97903.13;;;17.54;69.13
72038;BME280;59900;50.788;12.904;2023-05-20T10:24:38;97899.16;;;17.45;68.71
72038;BME280;59900;50.788;12.904;2023-05-20T10:27:12;97899.97;;;17.46;69.86
72038;BME280;59900;50.788;12.904;2023-05-20T10:30:13;97905.84;;;17.48;70.03
72038;BME280;59900;50.788;12.904;2023-05-20T10:32:31;97892.59;;;17.59;69.60
72038;BME280;59900;50.788;12.904;2023-05-20T10:35:01;97898.03;;;17.76;69.34
72038;BME280;59900;50.788;12.904;2023-05-20T10:37:33;97892.56;;;17.94;68.80
72038;BME280;59900;50.788;12.904;2023-05-20T10:40:11;97904.34;;;18.10;68.81
72038;BME280;59900;50.788;12.904;2023-05-20T10:42:37;97889.63;;;18.19;67.45
72038;BME280;59900;50.788;12.904;2023-05-20T10:45:03;97897.13;;;18.33;67.51
72038;BME280;59900;50.788;12.904;2023-05-20T10:47:29;97887.00;;;18.47;67.36
72038;BME280;59900;50.788;12.904;2023-05-20T10:49:55;97894.25;;;18.63;66.64
72038;BME280;59900;50.788;12.904;2023-05-20T10:52:20;97889.03;;;18.68;65.33
72038;BME280;59900;50.788;12.904;2023-05-20T10:54:47;97888.69;;;18.65;65.86
72038;BME280;59900;50.788;12.904;2023-05-20T10:57:12;97866.09;;;18.67;65.59
72038;BME280;59900;50.788;12.904;2023-05-20T10:59:38;97883.56;;;18.75;65.97
72038;BME280;59900;50.788;12.904;2023-05-20T11:02:03;97884.88;;;18.89;66.05
72038;BME280;59900;50.788;12.904;2023-05-20T11:04:29;97870.50;;;19.07;65.92
72038;BME280;59900;50.788;12.904;2023-05-20T11:06:56;97862.84;;;19.10;65.76
72038;BME280;59900;50.788;12.904;2023-05-20T11:09:22;97861.00;;;19.11;65.70
72038;BME280;59900;50.788;12.904;2023-05-20T11:11:49;97868.09;;;19.22;65.89
72038;BME280;59900;50.788;12.904;2023-05-20T11:14:15;97868.72;;;19.29;65.61
72038;BME280;59900;50.788;12.904;2023-05-20T11:16:42;97849.09;;;19.35;65.37
72038;BME280;59900;50.788;12.904;2023-05-20T11:19:07;97869.00;;;19.44;65.23
72038;BME280;59900;50.788;12.904;2023-05-20T11:21:33;97863.00;;;19.53;64.70
72038;BME280;59900;50.788;12.904;2023-05-20T11:23:58;97850.63;;;19.64;64.43
72038;BME280;59900;50.788;12.904;2023-05-20T11:26:24;97855.41;;;19.62;63.62
72038;BME280;59900;50.788;12.904;2023-05-20T11:28:49;97854.53;;;19.56;62.80
72038;BME280;59900;50.788;12.904;2023-05-20T11:31:17;97847.22;;;19.69;63.16
72038;BME280;59900;50.788;12.904;2023-05-20T11:33:42;97845.50;;;19.79;63.14
72038;BME280;59900;50.788;12.904;2023-05-20T11:36:08;97841.53;;;19.82;62.18
72038;BME280;59900;50.788;12.904;2023-05-20T11:38:33;97829.00;;;19.82;62.50
72038;BME280;59900;50.788;12.904;2023-05-20T11:40:59;97829.81;;;19.83;62.83
72038;BME280;59900;50.788;12.904;2023-05-20T11:43:24;97819.47;;;19.86;62.59
72038;BME280;59900;50.788;12.904;2023-05-20T11:45:54;97825.41;;;19.93;63.07
72038;BME280;59900;50.788;12.904;2023-05-20T11:48:20;97823.91;;;20.02;62.53
72038;BME280;59900;50.788;12.904;2023-05-20T11:50:46;97818.91;;;20.06;62.74
72038;BME280;59900;50.788;12.904;2023-05-20T11:53:19;97824.28;;;20.11;62.43
72038;BME280;59900;50.788;12.904;2023-05-20T11:55:55;97820.88;;;20.16;62.57
72038;BME280;59900;50.788;12.904;2023-05-20T11:58:25;97823.84;;;20.19;62.52
72038;BME280;59900;50.788;12.904;2023-05-20T12:00:51;97829.75;;;20.21;62.08
72038;BME280;59900;50.788;12.904;2023-05-20T12:03:16;97825.91;;;20.34;61.92
72038;BME280;59900;50.788;12.904;2023-05-20T12:05:42;97814.47;;;20.38;62.05
72038;BME280;59900;50.788;12.904;2023-05-20T12:08:07;97819.06;;;20.43;61.83
72038;BME280;59900;50.788;12.904;2023-05-20T12:10:33;97821.66;;;20.38;61.44
72038;BME280;59900;50.788;12.904;2023-05-20T12:12:59;97824.78;;;20.30;61.62
72038;BME280;59900;50.788;12.904;2023-05-20T12:15:25;97807.78;;;20.36;61.71
72038;BME280;59900;50.788;12.904;2023-05-20T12:17:52;97814.44;;;20.60;61.86
72038;BME280;59900;50.788;12.904;2023-05-20T12:20:21;97810.69;;;20.61;61.20
72038;BME280;59900;50.788;12.904;2023-05-20T12:22:47;97808.13;;;20.71;60.88
72038;BME280;59900;50.788;12.904;2023-05-20T12:25:14;97803.47;;;20.88;61.30
72038;BME280;59900;50.788;12.904;2023-05-20T12:27:40;97814.75;;;20.95;60.67
72038;BME280;59900;50.788;12.904;2023-05-20T12:30:07;97805.94;;;21.00;60.67
72038;BME280;59900;50.788;12.904;2023-05-20T12:32:37;97801.72;;;21.04;59.59
72038;BME280;59900;50.788;12.904;2023-05-20T12:35:02;97801.06;;;21.23;59.94
72038;BME280;59900;50.788;12.904;2023-05-20T12:37:28;97781.03;;;21.21;59.62
72038;BME280;59900;50.788;12.904;2023-05-20T12:39:53;97788.75;;;21.17;59.40
72038;BME280;59900;50.788;12.904;2023-05-20T12:42:18;97788.59;;;21.02;59.37
72038;BME280;59900;50.788;12.904;2023-05-20T12:44:43;97795.75;;;20.92;60.06
72038;BME280;59900;50.788;12.904;2023-05-20T12:47:09;97802.56;;;20.78;60.75